Crawford, NE (69339)

4:45 AM MST on January 27, 2015 (GMT -0700)
Deadman | Change Station
CLOSE
Current Station
Personal Weather Station
Location: Crawford, NE
Elevation: 4180 ft
Nearby Weather Stations

Elev 4180 ft 42.58 °N, 103.47 °W | Updated 4 seconds ago

Clear
Clear
30.9 °F
Feels Like 28 °F
N
3.2
Wind Variable Wind from ESE
Gusts 5.3 mph

Today
High -- | Low -- °F
--% Chance of Precip.
Yesterday
High -- | Low -- °F
Precip. -- in
7:12 AM 5:00 PM
First Quarter, 53% visible
Pressure 30.06 in
Visibility 10.0 miles
Clouds Clear
Windchill 28 °F
Dew Point 26 °F
Humidity 81%
Rainfall 0.00 in
Snow Depth Not available.
UV 0 out of 12
Pollen 2.20 out of 12
Air Quality Not available.
Flu Activity Not available.
METAR KCDR 271053Z AUTO 21005KT 10SM CLR 00/M03 A3003 RMK AO2 SLP178 T00001033

More Conditions Fewer Conditions

Pressure 30.06 in
Visibility 10.0 miles
Clouds Clear
Windchill 28 °F
Dew Point 26 °F
Humidity 81%
Rainfall 0.00 in
Snow Depth Not available.
UV 0 out of 12
Pollen 2.20 out of 12
Air Quality Not available.
Flu Activity Not available.
METAR KCDR 271053Z AUTO 21005KT 10SM CLR 00/M03 A3003 RMK AO2 SLP178 T00001033

More Conditions Fewer Conditions

10-Day Weather Forecast

Almanac

Astronomy

Jan. 27, 2015 Rise Set
Actual Time
Civil Twilight
Nautical Twilight
Astronomical Twilight
Moon
Length of Visible Light
Length of Day
Tomorrow will be .
, % of the Moon is Illuminated

Today's Extremes

State Highs State Lows

Community

WunderPhotos

Upload Photos

1,790,566 photos uploaded!

WunderBlogs® & News

Nearby

Air Quality

  Air Quality AQ Index Pollutant
Not available.

Snow Depth

Station Depth Elevation

Earthquake Activity

City Distance Mag. Time & Date
Minimum magnitude displayed is 2.5.

Coastal Water Temperatures

Place Temperature

Nearby Weather Stations